createdAt,value
2022-11-26T00:02:30.657Z,98558.38
2022-11-26T00:05:00.021Z,98552.97
2022-11-26T00:07:30.628Z,98564.84
2022-11-26T00:09:59.681Z,98561.13
2022-11-26T00:12:33.829Z,98571.66
2022-11-26T00:15:16.445Z,98567.16
2022-11-26T00:17:44.066Z,98574.31
2022-11-26T00:20:12.443Z,98573.06
2022-11-26T00:22:55.725Z,98573.91
2022-11-26T00:25:27.691Z,98582.41
2022-11-26T00:27:58.418Z,98586.03
2022-11-26T00:30:28.187Z,98584.16
2022-11-26T00:32:56.230Z,98588.34
2022-11-26T00:35:23.764Z,98591.78
2022-11-26T00:37:57.976Z,98597.19
2022-11-26T00:40:32.760Z,98599.84
2022-11-26T00:43:02.039Z,98609.31
2022-11-26T00:45:31.533Z,98603.34
2022-11-26T00:48:01.895Z,98606.00
2022-11-26T00:50:39.007Z,98602.50
2022-11-26T00:53:08.335Z,98608.31
2022-11-26T00:55:41.911Z,98603.53
2022-11-26T00:58:26.895Z,98614.63
2022-11-26T01:00:57.334Z,98611.75
2022-11-26T01:03:26.490Z,98604.34
2022-11-26T01:05:58.358Z,98614.34
2022-11-26T01:08:35.789Z,98608.25
2022-11-26T01:11:05.123Z,98615.19
2022-11-26T01:13:33.635Z,98618.69
2022-11-26T01:16:07.006Z,98620.09
2022-11-26T01:18:35.936Z,98624.19
2022-11-26T01:21:03.129Z,98621.53
2022-11-26T01:23:30.589Z,98625.19
2022-11-26T01:25:58.994Z,98623.50
2022-11-26T01:28:28.951Z,98620.31
2022-11-26T01:30:56.070Z,98629.88
2022-11-26T01:33:23.556Z,98626.31
2022-11-26T01:35:50.765Z,98625.34
2022-11-26T01:38:18.523Z,98623.06
2022-11-26T01:41:09.625Z,98631.03
2022-11-26T01:43:43.443Z,98635.38
2022-11-26T01:46:22.445Z,98631.03
2022-11-26T01:48:51.080Z,98631.09
2022-11-26T01:51:29.258Z,98633.38
2022-11-26T01:54:01.135Z,98639.53
2022-11-26T01:56:38.162Z,98634.41
2022-11-26T01:59:18.583Z,98635.19
2022-11-26T02:01:47.559Z,98632.53
2022-11-26T02:04:41.086Z,98623.25
2022-11-26T02:07:08.487Z,98628.91
2022-11-26T02:09:36.495Z,98626.09
2022-11-26T02:12:04.114Z,98633.13
2022-11-26T02:14:37.104Z,98625.59
2022-11-26T02:17:45.788Z,98629.94
2022-11-26T02:20:51.038Z,98641.28
2022-11-26T02:24:17.062Z,98635.22
2022-11-26T02:27:22.271Z,98639.97
2022-11-26T02:30:11.284Z,98640.31
2022-11-26T02:32:48.258Z,98641.03
2022-11-26T02:35:37.417Z,98635.19
2022-11-26T02:38:15.421Z,98638.84
2022-11-26T02:40:42.593Z,98650.88
2022-11-26T02:43:10.726Z,98644.97
2022-11-26T02:45:42.622Z,98651.16
2022-11-26T02:48:22.322Z,98650.78
2022-11-26T02:50:59.751Z,98658.00
2022-11-26T02:53:32.190Z,98651.00
2022-11-26T02:56:17.367Z,98655.94
2022-11-26T02:58:45.815Z,98651.72
2022-11-26T03:01:49.785Z,98655.41
2022-11-26T03:04:24.607Z,98647.66
2022-11-26T03:06:58.318Z,98654.69
2022-11-26T03:09:25.786Z,98656.31
2022-11-26T03:11:53.133Z,98646.88
2022-11-26T03:14:20.671Z,98651.22
2022-11-26T03:16:47.898Z,98648.75
2022-11-26T03:19:15.461Z,98652.50
2022-11-26T03:21:42.648Z,98662.91
2022-11-26T03:24:10.127Z,98652.31
2022-11-26T03:26:37.356Z,98657.41
2022-11-26T03:29:04.901Z,98658.13
2022-11-26T03:31:32.211Z,98654.97
2022-11-26T03:33:59.849Z,98654.84
2022-11-26T03:36:27.058Z,98653.94
2022-11-26T03:38:54.600Z,98659.09
2022-11-26T03:41:21.844Z,98665.19
2022-11-26T03:43:49.424Z,98662.06
2022-11-26T03:46:16.747Z,98670.44
2022-11-26T03:48:44.374Z,98662.06
2022-11-26T03:51:11.668Z,98664.59
2022-11-26T03:53:39.321Z,98669.75
2022-11-26T03:56:07.149Z,98667.19
2022-11-26T03:58:35.808Z,98672.47
2022-11-26T04:01:12.502Z,98675.09
2022-11-26T04:03:41.196Z,98674.94
2022-11-26T04:06:10.134Z,98669.13
2022-11-26T04:08:37.613Z,98667.59
2022-11-26T04:11:04.893Z,98661.50
2022-11-26T04:13:32.356Z,98667.44
2022-11-26T04:15:59.540Z,98669.06
2022-11-26T04:18:26.966Z,98675.53
2022-11-26T04:20:54.141Z,98679.75
2022-11-26T04:23:21.704Z,98681.41
2022-11-26T04:25:48.920Z,98679.97
2022-11-26T04:28:16.477Z,98690.06
2022-11-26T04:30:44.079Z,98693.44
2022-11-26T04:33:11.850Z,98691.69
2022-11-26T04:35:39.223Z,98695.44
2022-11-26T04:38:06.769Z,98697.88
2022-11-26T04:40:33.949Z,98693.28
2022-11-26T04:43:01.503Z,98699.13
2022-11-26T04:45:28.737Z,98699.13
2022-11-26T04:47:56.259Z,98713.75
2022-11-26T04:50:24.195Z,98705.25
2022-11-26T04:52:51.743Z,98709.44
2022-11-26T04:55:19.037Z,98709.47
2022-11-26T04:57:48.691Z,98708.47
2022-11-26T05:00:18.404Z,98704.28
2022-11-26T05:02:46.336Z,98701.50
2022-11-26T05:05:13.881Z,98710.69
2022-11-26T05:07:41.401Z,98720.75
2022-11-26T05:10:10.117Z,98718.03
2022-11-26T05:12:37.909Z,98722.66
2022-11-26T05:15:05.757Z,98723.28
2022-11-26T05:17:33.589Z,98729.19
2022-11-26T05:20:00.895Z,98732.47
2022-11-26T05:22:28.405Z,98724.84
2022-11-26T05:24:55.609Z,98728.97
2022-11-26T05:27:23.118Z,98725.19
2022-11-26T05:29:50.373Z,98726.88
2022-11-26T05:32:18.135Z,98730.75
2022-11-26T05:34:45.385Z,98726.47
2022-11-26T05:37:12.946Z,98729.75
2022-11-26T05:39:40.144Z,98739.34
2022-11-26T05:42:09.320Z,98735.72
2022-11-26T05:44:38.041Z,98742.16
2022-11-26T05:47:05.951Z,98741.38
2022-11-26T05:49:33.185Z,98743.25
2022-11-26T05:52:00.691Z,98754.47
2022-11-26T05:54:27.876Z,98751.81
2022-11-26T05:56:59.869Z,98754.34
2022-11-26T05:59:28.317Z,98762.16
2022-11-26T06:01:56.229Z,98766.56
2022-11-26T06:04:23.530Z,98771.63
2022-11-26T06:06:51.041Z,98779.25
2022-11-26T06:09:18.177Z,98773.25
2022-11-26T06:11:45.725Z,98776.75
2022-11-26T06:14:12.911Z,98778.34
2022-11-26T06:16:40.425Z,98774.72
2022-11-26T06:19:07.706Z,98794.03
2022-11-26T06:21:35.209Z,98788.44
2022-11-26T06:24:02.414Z,98788.41
2022-11-26T06:26:29.879Z,98789.94
2022-11-26T06:28:57.161Z,98782.94
2022-11-26T06:31:24.696Z,98783.69
2022-11-26T06:33:56.289Z,98786.28
2022-11-26T06:36:24.749Z,98792.94
2022-11-26T06:38:51.972Z,98786.91
2022-11-26T06:41:19.771Z,98792.63
2022-11-26T06:43:46.919Z,98792.50
2022-11-26T06:46:14.504Z,98806.72
2022-11-26T06:48:41.900Z,98797.19
2022-11-26T06:51:16.017Z,98805.28
2022-11-26T06:53:43.608Z,98813.13
2022-11-26T06:56:18.497Z,98807.94
2022-11-26T06:58:55.095Z,98810.53
2022-11-26T07:01:26.079Z,98820.06
2022-11-26T07:03:55.146Z,98822.84
2022-11-26T07:06:30.156Z,98823.31
2022-11-26T07:09:02.117Z,98831.03
2022-11-26T07:11:29.982Z,98825.59
2022-11-26T07:13:57.524Z,98823.84
2022-11-26T07:16:25.513Z,98837.53
2022-11-26T07:19:02.177Z,98837.81
2022-11-26T07:21:30.480Z,98842.84
2022-11-26T07:23:58.568Z,98844.25
2022-11-26T07:26:26.156Z,98838.06
2022-11-26T07:28:54.173Z,98838.69
2022-11-26T07:31:23.675Z,98850.13
2022-11-26T07:33:51.824Z,98841.22
2022-11-26T07:36:24.028Z,98847.16
2022-11-26T07:38:54.822Z,98848.72
2022-11-26T07:41:23.293Z,98849.06
2022-11-26T07:43:50.746Z,98851.50
2022-11-26T07:46:23.767Z,98855.84
2022-11-26T07:48:51.668Z,98861.72
2022-11-26T07:51:24.021Z,98856.69
2022-11-26T07:53:52.320Z,98859.13
2022-11-26T07:56:21.099Z,98862.50
2022-11-26T07:58:48.532Z,98861.59
2022-11-26T08:01:23.187Z,98862.63
2022-11-26T08:03:51.976Z,98871.88
2022-11-26T08:06:23.835Z,98875.03
2022-11-26T08:08:51.482Z,98868.94
2022-11-26T08:11:32.116Z,98871.38
2022-11-26T08:14:02.822Z,98879.81
2022-11-26T08:16:31.026Z,98879.56
2022-11-26T08:19:02.781Z,98876.88
2022-11-26T08:21:30.573Z,98882.81
2022-11-26T08:23:58.540Z,98878.47
2022-11-26T08:26:35.087Z,98877.63
2022-11-26T08:29:03.633Z,98885.94
2022-11-26T08:31:31.244Z,98888.13
2022-11-26T08:34:01.012Z,98885.09
2022-11-26T08:36:30.353Z,98889.56
2022-11-26T08:38:58.887Z,98886.56
2022-11-26T08:41:27.173Z,98890.81
2022-11-26T08:44:09.916Z,98890.16
2022-11-26T08:46:42.847Z,98887.63
2022-11-26T08:49:13.243Z,98892.44
2022-11-26T08:51:41.518Z,98889.06
2022-11-26T08:54:09.011Z,98899.97
2022-11-26T08:56:37.652Z,98902.56
2022-11-26T08:59:04.941Z,98903.13
2022-11-26T09:01:34.162Z,98913.47
2022-11-26T09:04:04.286Z,98913.22
2022-11-26T09:06:37.205Z,98915.28
2022-11-26T09:09:15.671Z,98917.88
2022-11-26T09:11:57.633Z,98916.97
2022-11-26T09:14:31.559Z,98919.09
2022-11-26T09:16:59.329Z,98934.59
2022-11-26T09:19:28.846Z,98928.34
2022-11-26T09:21:56.700Z,98922.22
2022-11-26T09:24:24.181Z,98935.16
2022-11-26T09:26:52.839Z,98929.28
2022-11-26T09:29:23.049Z,98931.25
2022-11-26T09:34:39.075Z,98936.19
2022-11-26T09:37:07.278Z,98925.97
2022-11-26T09:39:34.586Z,98931.78
2022-11-26T09:42:28.764Z,98937.50
2022-11-26T09:45:42.252Z,98930.41
2022-11-26T09:48:25.230Z,98936.97
2022-11-26T09:51:09.531Z,98936.59
2022-11-26T09:53:45.864Z,98938.03
2022-11-26T09:56:26.264Z,98940.81
2022-11-26T09:59:04.008Z,98928.06
2022-11-26T10:01:34.336Z,98930.56
2022-11-26T10:04:01.956Z,98925.09
2022-11-26T10:07:08.817Z,98927.63
2022-11-26T10:10:12.360Z,98940.16
2022-11-26T10:13:20.612Z,98939.41
2022-11-26T10:16:28.090Z,98939.19
2022-11-26T10:19:59.597Z,98934.34
2022-11-26T10:22:36.467Z,98935.88
2022-11-26T10:25:16.000Z,98933.59
2022-11-26T10:27:43.679Z,98939.53
2022-11-26T10:30:25.579Z,98938.94
2022-11-26T10:32:56.316Z,98932.84
2022-11-26T10:35:29.085Z,98935.44
2022-11-26T10:37:58.335Z,98937.78
2022-11-26T10:40:33.021Z,98925.41
2022-11-26T10:43:08.538Z,98929.78
2022-11-26T10:45:53.131Z,98939.84
2022-11-26T10:48:27.043Z,98930.22
2022-11-26T10:51:06.895Z,98932.56
2022-11-26T10:54:01.420Z,98933.19
2022-11-26T10:56:47.180Z,98924.78
2022-11-26T10:59:44.974Z,98920.69
2022-11-26T11:02:41.295Z,98915.41
2022-11-26T11:05:10.182Z,98923.09
2022-11-26T11:07:37.992Z,98927.53
2022-11-26T11:10:08.501Z,98926.75
2022-11-26T11:12:51.161Z,98925.28
2022-11-26T11:15:24.587Z,98922.94
2022-11-26T11:18:20.436Z,98931.91
2022-11-26T11:21:05.139Z,98932.03
2022-11-26T11:24:07.203Z,98930.75
2022-11-26T11:26:26.897Z,98929.19
2022-11-26T11:28:56.526Z,98927.78
2022-11-26T11:31:26.812Z,98930.09
2022-11-26T11:34:23.888Z,98933.72
2022-11-26T11:37:15.173Z,98934.06
2022-11-26T11:39:44.158Z,98927.56
2022-11-26T11:42:32.376Z,98938.34
2022-11-26T11:45:01.503Z,98937.44
2022-11-26T11:47:42.972Z,98940.38
2022-11-26T11:50:20.167Z,98951.41
2022-11-26T11:53:15.247Z,98953.03
2022-11-26T11:56:19.188Z,98944.59
2022-11-26T11:59:21.588Z,98955.84
2022-11-26T12:01:57.147Z,98957.34
2022-11-26T12:04:55.287Z,98954.75
2022-11-26T12:07:42.519Z,98948.22
2022-11-26T12:10:33.894Z,98951.41
2022-11-26T12:13:08.078Z,98951.84
2022-11-26T12:15:53.838Z,98947.34
2022-11-26T12:18:56.757Z,98949.41
2022-11-26T12:21:54.576Z,98958.81
2022-11-26T12:24:58.862Z,98965.53
2022-11-26T12:27:36.227Z,98961.72
2022-11-26T12:30:50.882Z,98963.50
2022-11-26T12:33:43.756Z,98963.63
2022-11-26T12:36:36.312Z,98964.94
2022-11-26T12:39:19.127Z,98969.72
2022-11-26T12:42:11.420Z,98972.53
2022-11-26T12:44:42.354Z,98970.38
2022-11-26T12:47:38.842Z,98965.75
2022-11-26T12:50:44.543Z,98969.84
2022-11-26T12:53:46.072Z,98965.78
2022-11-26T12:56:23.836Z,98964.94
2022-11-26T12:58:59.673Z,98969.78
2022-11-26T13:01:28.272Z,98976.75
2022-11-26T13:04:14.742Z,98970.31
2022-11-26T13:07:13.765Z,98967.13
2022-11-26T13:10:05.215Z,98964.03
2022-11-26T13:12:51.148Z,98967.50
2022-11-26T13:15:25.671Z,98978.31
2022-11-26T13:17:54.673Z,98977.34
2022-11-26T13:20:55.404Z,98975.22
2022-11-26T13:23:44.260Z,98987.22
2022-11-26T13:26:29.283Z,98977.03
2022-11-26T13:29:04.036Z,98985.50
2022-11-26T13:31:55.407Z,98985.00
2022-11-26T13:34:45.957Z,98984.84
2022-11-26T13:37:40.937Z,98975.22
2022-11-26T13:40:43.386Z,98986.19
2022-11-26T13:43:38.557Z,98992.19
2022-11-26T13:46:13.846Z,98989.06
2022-11-26T13:49:05.252Z,98988.56
2022-11-26T13:52:03.447Z,98993.25
2022-11-26T13:54:48.163Z,98991.03
2022-11-26T13:57:24.624Z,98993.06
2022-11-26T13:59:56.212Z,98988.13
2022-11-26T14:02:36.913Z,98993.59
2022-11-26T14:05:10.548Z,98992.69
2022-11-26T14:07:38.244Z,99003.13
2022-11-26T14:10:28.445Z,98994.81
2022-11-26T14:13:07.510Z,99002.41
2022-11-26T14:15:43.726Z,98993.50
2022-11-26T14:18:14.815Z,99001.44
2022-11-26T14:21:00.785Z,99003.00
2022-11-26T14:23:47.785Z,99006.13
2022-11-26T14:26:43.817Z,99004.22
2022-11-26T14:29:17.566Z,98994.75
2022-11-26T14:31:55.009Z,99006.38
2022-11-26T14:34:57.474Z,99003.84
2022-11-26T14:37:31.092Z,99002.75
2022-11-26T14:40:19.447Z,99010.56
2022-11-26T14:42:46.690Z,99008.41
2022-11-26T14:45:20.806Z,99016.97
2022-11-26T14:47:53.386Z,99010.28
2022-11-26T14:50:25.303Z,99017.16
2022-11-26T14:53:01.307Z,99012.63
2022-11-26T14:55:31.614Z,99012.56
2022-11-26T14:58:42.090Z,99023.78
2022-11-26T15:01:15.482Z,99026.31
2022-11-26T15:03:53.004Z,99027.06
2022-11-26T15:06:37.729Z,99024.47
2022-11-26T15:09:16.517Z,99029.72
2022-11-26T15:12:07.538Z,99034.34
2022-11-26T15:14:48.564Z,99037.25
2022-11-26T15:17:23.756Z,99041.47
2022-11-26T15:19:53.287Z,99038.09
2022-11-26T15:22:47.824Z,99038.22
2022-11-26T15:25:24.107Z,99040.63
2022-11-26T15:28:20.142Z,99044.56
2022-11-26T15:31:00.908Z,99043.78
2022-11-26T15:33:32.275Z,99043.78
2022-11-26T15:36:00.349Z,99044.81
2022-11-26T15:38:31.474Z,99039.38
2022-11-26T15:41:00.851Z,99044.63
2022-11-26T15:43:44.714Z,99048.72
2022-11-26T15:46:20.252Z,99050.22
2022-11-26T15:48:54.039Z,99052.69
2022-11-26T15:51:37.314Z,99053.81
2022-11-26T15:54:43.472Z,99056.28
2022-11-26T15:57:52.446Z,99049.78
2022-11-26T16:00:36.461Z,99058.38
2022-11-26T16:03:05.162Z,99060.94
2022-11-26T16:05:39.870Z,99060.19
2022-11-26T16:08:23.803Z,99069.19
2022-11-26T16:10:57.444Z,99062.53
2022-11-26T16:13:32.403Z,99068.59
2022-11-26T16:16:28.310Z,99072.81
2022-11-26T16:19:00.305Z,99074.19
2022-11-26T16:21:34.653Z,99079.75
2022-11-26T16:24:19.913Z,99081.38
2022-11-26T16:27:05.672Z,99084.13
2022-11-26T16:29:35.950Z,99092.28
2022-11-26T16:32:03.695Z,99091.53
2022-11-26T16:34:31.015Z,99096.03
2022-11-26T16:37:22.569Z,99092.34
2022-11-26T16:39:53.628Z,99101.69
2022-11-26T16:42:23.809Z,99098.88
2022-11-26T16:44:51.569Z,99096.19
2022-11-26T16:47:36.354Z,99103.16
2022-11-26T16:50:04.110Z,99102.84
2022-11-26T16:52:36.101Z,99107.91
2022-11-26T16:55:03.386Z,99115.06
2022-11-26T16:57:31.023Z,99117.38
2022-11-26T17:00:05.433Z,99119.16
2022-11-26T17:02:33.601Z,99125.88
2022-11-26T17:05:01.320Z,99130.53
2022-11-26T17:07:42.832Z,99125.22
2022-11-26T17:10:18.341Z,99140.56
2022-11-26T17:12:46.414Z,99143.53
2022-11-26T17:15:13.818Z,99143.53
2022-11-26T17:17:41.758Z,99144.47
2022-11-26T17:20:25.689Z,99144.13
2022-11-26T17:22:53.646Z,99142.19
2022-11-26T17:25:21.242Z,99152.31
2022-11-26T17:27:48.933Z,99148.22
2022-11-26T17:30:21.867Z,99157.88
2022-11-26T17:32:50.891Z,99163.19
2022-11-26T17:35:18.904Z,99171.06
2022-11-26T17:37:46.777Z,99170.66
2022-11-26T17:40:23.980Z,99170.44
2022-11-26T17:42:51.971Z,99163.97
2022-11-26T17:45:19.882Z,99175.91
2022-11-26T17:47:47.753Z,99170.69
2022-11-26T17:50:25.391Z,99174.16
2022-11-26T17:52:53.309Z,99178.44
2022-11-26T17:55:23.590Z,99180.13
2022-11-26T17:57:52.012Z,99178.22
2022-11-26T18:00:28.233Z,99176.88
2022-11-26T18:02:57.101Z,99182.47
2022-11-26T18:05:25.683Z,99188.28
2022-11-26T18:07:53.381Z,99178.84
2022-11-26T18:10:23.366Z,99190.44
2022-11-26T18:12:54.312Z,99185.38
2022-11-26T18:15:25.582Z,99183.63
2022-11-26T18:17:55.499Z,99192.06
2022-11-26T18:20:28.798Z,99192.25
2022-11-26T18:23:00.830Z,99193.25
2022-11-26T18:25:29.898Z,99199.38
2022-11-26T18:27:57.431Z,99204.69
2022-11-26T18:30:24.889Z,99211.50
2022-11-26T18:32:52.619Z,99204.56
2022-11-26T18:35:19.934Z,99211.56
2022-11-26T18:37:47.502Z,99203.16
2022-11-26T18:40:17.225Z,99207.63
2022-11-26T18:42:45.860Z,99211.00
2022-11-26T18:45:16.009Z,99208.22
2022-11-26T18:47:43.715Z,99204.78
2022-11-26T18:50:11.662Z,99210.72
2022-11-26T18:52:39.972Z,99208.84
2022-11-26T18:55:08.410Z,99217.91
2022-11-26T18:57:36.749Z,99223.88
2022-11-26T19:00:06.298Z,99228.16
2022-11-26T19:02:37.081Z,99222.88
2022-11-26T19:05:05.440Z,99223.88
2022-11-26T19:07:33.620Z,99220.63
2022-11-26T19:10:00.990Z,99224.00
2022-11-26T19:12:28.542Z,99232.78
2022-11-26T19:14:55.738Z,99228.69
2022-11-26T19:17:23.395Z,99234.78
2022-11-26T19:19:50.606Z,99239.47
2022-11-26T19:22:18.088Z,99237.84
2022-11-26T19:24:45.351Z,99246.22
2022-11-26T19:27:13.703Z,99247.84
2022-11-26T19:29:41.172Z,99238.38
2022-11-26T19:32:08.924Z,99244.16
2022-11-26T19:34:36.126Z,99250.81
2022-11-26T19:37:03.631Z,99247.25
2022-11-26T19:39:31.666Z,99249.63
2022-11-26T19:41:59.985Z,99249.44
2022-11-26T19:44:27.364Z,99250.28
2022-11-26T19:46:54.914Z,99250.09
2022-11-26T19:49:22.739Z,99249.13
2022-11-26T19:51:50.285Z,99267.50
2022-11-26T19:54:17.567Z,99263.84
2022-11-26T19:56:46.045Z,99267.38
2022-11-26T19:59:13.516Z,99260.38
2022-11-26T20:01:42.298Z,99260.38
2022-11-26T20:04:16.748Z,99259.75
2022-11-26T20:06:44.610Z,99277.50
2022-11-26T20:09:14.728Z,99279.44
2022-11-26T20:11:42.894Z,99275.56
2022-11-26T20:14:10.841Z,99276.84
2022-11-26T20:16:43.273Z,99280.25
2022-11-26T20:19:12.599Z,99282.56
2022-11-26T20:21:40.264Z,99284.53
2022-11-26T20:24:13.168Z,99281.16
2022-11-26T20:26:43.470Z,99286.97
2022-11-26T20:29:16.998Z,99284.47
2022-11-26T20:31:48.514Z,99285.56
2022-11-26T20:34:31.026Z,99286.53
2022-11-26T20:36:58.638Z,99283.22
2022-11-26T20:39:26.057Z,99289.72
2022-11-26T20:41:53.630Z,99281.84
2022-11-26T20:44:21.080Z,99289.38
2022-11-26T20:46:48.728Z,99290.09
2022-11-26T20:49:16.266Z,99292.59
2022-11-26T20:51:43.869Z,99293.28
2022-11-26T20:54:11.206Z,99288.88
2022-11-26T20:56:38.773Z,99287.88
2022-11-26T20:59:07.241Z,99288.72
2022-11-26T21:01:40.293Z,99302.31
2022-11-26T21:04:08.370Z,99300.41
2022-11-26T21:06:36.288Z,99297.63
2022-11-26T21:09:06.521Z,99302.06
2022-11-26T21:11:35.299Z,99299.56
2022-11-26T21:14:02.721Z,99299.06
2022-11-26T21:16:31.329Z,99304.06
2022-11-26T21:19:00.609Z,99307.56
2022-11-26T21:21:29.285Z,99307.59
2022-11-26T21:23:58.251Z,99308.56
2022-11-26T21:26:27.115Z,99310.19
2022-11-26T21:28:58.456Z,99303.25
2022-11-26T21:31:29.753Z,99304.31
2022-11-26T21:34:04.952Z,99308.66
2022-11-26T21:36:35.415Z,99310.47
2022-11-26T21:39:03.855Z,99312.25
2022-11-26T21:41:33.603Z,99315.66
2022-11-26T21:44:04.355Z,99313.09
2022-11-26T21:46:38.177Z,99313.06
2022-11-26T21:49:07.905Z,99312.78
2022-11-26T21:51:35.879Z,99309.25
2022-11-26T21:54:03.187Z,99314.28
2022-11-26T21:56:32.545Z,99316.81
2022-11-26T21:59:01.740Z,99318.50
2022-11-26T22:01:33.359Z,99315.13
2022-11-26T22:04:14.497Z,99321.16
2022-11-26T22:06:44.477Z,99322.84
2022-11-26T22:09:14.011Z,99320.50
2022-11-26T22:11:44.438Z,99323.03
2022-11-26T22:14:15.841Z,99320.53
2022-11-26T22:16:43.799Z,99322.31
2022-11-26T22:19:11.088Z,99323.53
2022-11-26T22:21:41.737Z,99321.66
2022-11-26T22:24:15.773Z,99329.53
2022-11-26T22:26:44.417Z,99331.13
2022-11-26T22:29:17.000Z,99323.16
2022-11-26T22:31:44.955Z,99335.06
2022-11-26T22:34:18.632Z,99325.44
2022-11-26T22:36:46.916Z,99329.59
2022-11-26T22:39:17.329Z,99328.69
2022-11-26T22:41:47.101Z,99323.34
2022-11-26T22:44:16.120Z,99315.88
2022-11-26T22:46:44.840Z,99322.00
2022-11-26T22:49:15.973Z,99319.38
2022-11-26T22:51:43.924Z,99316.72
2022-11-26T22:54:15.528Z,99315.81
2022-11-26T22:56:43.026Z,99318.47
2022-11-26T22:59:14.590Z,99326.34
2022-11-26T23:01:42.168Z,99322.91
2022-11-26T23:04:11.177Z,99322.84
2022-11-26T23:06:39.637Z,99320.22
2022-11-26T23:09:09.033Z,99319.31
2022-11-26T23:11:40.822Z,99322.72
2022-11-26T23:14:09.709Z,99324.34
2022-11-26T23:16:40.513Z,99327.72
2022-11-26T23:19:08.370Z,99334.66
2022-11-26T23:21:40.248Z,99336.41
2022-11-26T23:24:08.690Z,99335.53
2022-11-26T23:26:39.112Z,99325.09
2022-11-26T23:29:08.510Z,99327.72
2022-11-26T23:31:41.286Z,99335.50
2022-11-26T23:34:10.142Z,99332.84
2022-11-26T23:36:38.364Z,99327.56
2022-11-26T23:39:08.173Z,99322.44
2022-11-26T23:41:36.453Z,99323.28
2022-11-26T23:44:03.930Z,99324.19
2022-11-26T23:46:35.377Z,99328.59
2022-11-26T23:49:03.270Z,99311.47
2022-11-26T23:51:32.999Z,99314.28
2022-11-26T23:54:00.338Z,99322.84
2022-11-26T23:56:32.139Z,99316.13
2022-11-26T23:59:03.059Z,99323.66
